Thursday, March 5, 2015, 1:28 AM EST

KRDG, Reading Regional Airport

Location: Reading, PA, United States Lat: 40.367
Local Time: 1:28 AM EST ( 6:28 GMT) Lon: -75.967
Time Zone: US/Eastern Elev: 344 ft

Show me the last for .
Show Decoded

2015-03-05 00:54 METAR KRDG 050554Z AUTO 28006KT 6SM -RA BR OVC055 02/01 A2994 =
2015-03-04 23:54 METAR KRDG 050454Z AUTO 30008KT 6SM RA BR OVC055 02/01 A2994 RMK AO2 SLP145
                 P0006 T00220006 400440006 =
2015-03-04 22:54 METAR KRDG 050354Z AUTO 28004KT 8SM -RA OVC060 03/01 A2994 RMK AO2 SLP148 P0003
                 T00280011 =
2015-03-04 20:54 METAR KRDG 050154Z 00000KT 4SM -RA BR FEW049 OVC055 04/03 A2992 RMK AO2 SLP141
                 P0005 T00390033 =
2015-03-04 20:45 METAR KRDG 050145Z 00000KT 3SM -RA BR SCT047 OVC055 04/03 A2992 RMK AO2 P0005
                 T00390033 =
2015-03-04 20:38 METAR KRDG 050138Z 00000KT 1SM R36/4500VP6000FT -RA BR FEW034 SCT042 OVC050
                 04/03 A2992 RMK AO2 P0004 T00390033 =
2015-03-04 20:22 METAR KRDG 050122Z 00000KT 1/2SM R36/1800V4500FT -RA FG BKN031 OVC046 03/03
                 A2992 RMK AO2 P0003 T00330028 =
2015-03-04 20:14 METAR KRDG 050114Z 26004KT 3/4SM R36/2800VP6000FT -RA BR OVC031 03/03 A2993 RMK
                 AO2 PRESRR P0002 T00330028 =
2015-03-04 20:01 METAR KRDG 050101Z 26003KT 1/2SM R36/1200V6000FT -RA FG OVC027 04/03 A2991 RMK
                 AO2 P0000 T00390028 =
2015-03-04 19:54 METAR KRDG 050054Z 00000KT 1/2SM R36/1200V2200FT RA FG VV004 03/03 A2991 RMK AO2
                 RAB30 SLP136 P0002 T00280028 =
2015-03-04 19:21 METAR KRDG 050021Z 29003KT 1/2SM R36/1200V3000FT FG VV004 03/03 A2990 RMK AO2
                 T00330028 =
2015-03-04 18:54 METAR KRDG 042354Z AUTO 00000KT 1/2SM R36/1000V1600FT FG VV004 04/03 A2989 RMK
                 AO2 RAB28E42 SLP128 P0000 60019 T00390033 10044 20033 50004 =
2015-03-04 18:50 METAR KRDG 042350Z AUTO 00000KT 1/2SM R36/1000V1400FT FG VV004 03/03 A2989 RMK
                 AO2 RAB28E42 P0000 =
2015-03-04 18:43 METAR KRDG 042343Z 00000KT 1/2SM R36/1200VP6000FT FG OVC027 03/03 A2989 RMK AO2
                 RAB28E42 P0000 T00330028 =
2015-03-04 18:32 METAR KRDG 042332Z 00000KT 1 3/4SM -RA BR OVC027 04/04 A2989 RMK AO2 RAB28 P0000
                 T00440039 =
2015-03-04 18:08 METAR KRDG 042308Z 26003KT 2SM BR OVC027 04/03 A2989 RMK AO2 T00390033 =
2015-03-04 17:58 METAR KRDG 042258Z 27004KT 1SM R36/6000VP6000FT BR OVC027 04/03 A2989 RMK AO2
                 T00390033 =
2015-03-04 17:54 METAR KRDG 042254Z 26004KT 1/2SM R36/4000VP6000FT FG OVC027 04/03 A2990 RMK AO2
                 RAB01E15 SLP131 P0000 T00390033 =
2015-03-04 16:58 METAR KRDG 042158Z 00000KT 1/2SM R36/4000V5500FT FG OVC029 04/04 A2988 RMK AO2
                 T00440039 =
2015-03-04 16:54 METAR KRDG 042154Z 00000KT 3/4SM R36/4000V6000FT BR OVC030 04/04 A2988 RMK AO2
                 SLP127 T00390039 =
2015-03-04 16:21 METAR KRDG 042121Z 19003KT 1SM R36/5000VP6000FT BR OVC033 04/04 A2988 RMK AO2
                 T00440039 =
2015-03-04 15:54 METAR KRDG 042054Z 20004KT 1/4SM R36/1600V3500FT FG OVC036 04/03 A2988 RMK AO2
                 RAE1957 SLP125 P0001 60019 T00440033 51012 =
2015-03-04 15:51 METAR KRDG 042051Z 19004KT 1/4SM R36/2600V4000FT FG OVC036 04/03 A2988 RMK AO2
                 RAE1957 P0001 =
2015-03-04 15:39 METAR KRDG 042039Z 00000KT 3/4SM R36/3500V4500FT BR FEW002 OVC038 04/03 A2987
                 RMK AO2 RAE1957 P0001 T00390033 =
2015-03-04 15:23 METAR KRDG 042023Z 00000KT 1/2SM R36/2600V4500FT FG SCT002 BKN040 OVC060 03/03
                 A2987 RMK AO2 RAE1957 P0001 T00330028 =
2015-03-04 14:54 METAR KRDG 041954Z 00000KT 1/2SM R36/2200V4500FT -RA FG SCT036 BKN049 OVC065
                 04/03 A2987 RMK AO2 TWR VIS 1 SLP121 P0006 T00390033 =
2015-03-04 14:45 METAR KRDG 041945Z 19003KT 3/4SM R36/3500V4500FT -RA BR SCT049 OVC065 04/03
                 A2987 RMK AO2 TWR VIS 1 P0005 T00390033 =
2015-03-04 13:54 METAR KRDG 041854Z 00000KT 1SM R36/4000V5500FT -RA BR FEW039 BKN070 OVC080 04/03
                 A2984 RMK AO2 SFC VIS 1 1/4 SLP112 P0012 T00390033 =
2015-03-04 12:54 METAR KRDG 041754Z 00000KT 1SM R36/P6000FT -RA BR OVC080 04/03 A2986 RMK AO2 SFC
                 VIS 2 SLP121 P0010 60040 T00440028 10044 20006 58007 =
2015-03-04 11:54 METAR KRDG 041654Z 00000KT 1SM R36/P6000FT -RA BR BKN031 BKN047 OVC070 03/02
                 A2988 RMK AO2 SFC VIS 2 RAB31 SLP128 P0009 T00330022 =
2015-03-04 10:54 METAR KRDG 041554Z 35003KT 1SM R36/5500VP6000FT BR SCT029 BKN070 03/02 A2988 RMK
                 AO2 SFC VIS 1 3/4 RAE51 SLP127 P0007 T00280017 =
2015-03-04 09:54 METAR KRDG 041454Z 00000KT 1SM R36/5000VP6000FT -RA BR FEW007 BKN080 OVC090
                 02/01 A2988 RMK AO2 SFC VIS 1 1/2 RAE1359B05E22B48 SLP127 P0007 60014 T00220011
                 53008 =
2015-03-04 09:04 METAR KRDG 041404Z AUTO 00000KT 1 1/2SM BR FEW060 OVC080 02/01 A2987 RMK AO2
                 RAE1359 P0001 T00170011 =
2015-03-04 08:54 METAR KRDG 041354Z AUTO 00000KT 3/4SM R36/3500VP6000FT -RA BR BKN060 OVC090
                 01/01 A2987 RMK AO2 TWR VIS 1 1/2 SLP124 P0004 T00110006 $ =
2015-03-04 08:49 METAR KRDG 041349Z AUTO 14003KT 3/4SM R36/3500VP6000FT -RA BR BKN060 BKN075
                 OVC090 01/00 A2987 RMK AO2 TWR VIS 1 1/2 P0004 $ =
2015-03-04 08:39 METAR KRDG 041339Z AUTO 00000KT 1/2SM R36/2600VP6000FT -RA FG BKN065 OVC080
                 01/00 A2987 RMK AO2 TWR VIS 1 1/2 P0003 T00060000 $ =
2015-03-04 07:54 METAR KRDG 041254Z AUTO 00000KT 1 1/4SM R36/5000V5500FT -RA BR BKN075 OVC090
                 01/00 A2986 RMK AO2 TWR VIS 1 1/2 SLP119 P0003 T00110000 $ =
2015-03-04 06:54 METAR KRDG 041154Z AUTO 00000KT 1 1/2SM R36/6000VP6000FT -RA BR FEW070 OVC090
                 01/M01 A2984 RMK AO2 RAE20B50 SLP112 P0001 6//// 7//// T00061006 10011 20006
                 53013 $ =
2015-03-04 05:54 METAR KRDG 041054Z AUTO 30004KT 1 1/2SM -RA BR OVC085 01/M01 A2982 =
2015-03-04 05:39 METAR KRDG 041039Z AUTO 30005KT 1 1/2SM -RA BR SCT008 OVC080 01/M01 A2982 RMK
                 AO2 SFC VIS 4 P0001 T00111006 $ =
2015-03-04 04:54 METAR KRDG 040954Z AUTO 00000KT 1 1/2SM -RA BR OVC009 01/M01 A2980 RMK AO2 SFC
                 VIS 3 RAB35 CIG 006V012 SLP099 P0000 T00061006 $ =
2015-03-04 04:51 METAR KRDG 040951Z AUTO 00000KT 1 1/2SM -RA BR OVC009 01/M01 A2980 RMK AO2 SFC
                 VIS 3 RAB35 CIG 006V012 P0000 $ =
2015-03-04 04:05 METAR KRDG 040905Z AUTO 00000KT 1 1/2SM R36/5000VP6000FT BR BKN012 OVC085 01/M01
                 A2978 RMK AO2 SFC VIS 2 T00061006 $ =
2015-03-04 03:54 METAR KRDG 040854Z AUTO 00000KT 1 1/2SM BR SCT012 OVC085 01/M01 A2977 RMK AO2
                 SFC VIS 4 SLP088 6//// T00061006 55011 $ =
2015-03-04 03:52 METAR KRDG 040852Z AUTO 00000KT 1 1/2SM BR SCT012 OVC085 01/M01 A2976 RMK AO2
                 SFC VIS 4 $ =
2015-03-04 02:54 METAR KRDG 040754Z AUTO 20005KT 1 1/2SM BR BKN013 OVC090 01/M01 A2977 RMK AO2
                 SFC VIS 5 SLP088 P0001 T00061006 $ =
2015-03-04 02:35 METAR KRDG 040735Z AUTO 16003KT 1 1/2SM BR SCT013 BKN030 OVC090 01/M01 A2978 RMK
                 AO2 SFC VIS 4 PRESFR P0001 T00061006 $ =
2015-03-04 01:54 METAR KRDG 040654Z AUTO 00000KT 1 1/2SM BR BKN014 OVC090 01/M01 A2980 =
2015-03-04 01:36 METAR KRDG 040636Z AUTO 00000KT 1 1/2SM -RA BR BKN013 OVC025 01/M01 A2980 RMK
                 AO2 SFC VIS 5 RAB04 T00061006 PNO $ =

Support USWX by starting your Amazon purchase here.